Terminal Aerodrome Forecast
Issued by NWS

Home | Current Version | Previous Version | Text Only | Print | Product List | Glossary On
Versions: 1 2 3 4 5 6 7 8 9 10 11 12
000
FTUS43 KOAX 041120
TAFSNY
TAF
KSNY 041120Z 0412/0512 10010KT P6SM VCSH OVC080
     FM041800 10009KT P6SM OVC020
     FM050200 03010KT 3SM BR OVC007=

USA.gov is the U.S. government's official web portal to all federal, state and local government web resources and services.